sensor_id;sensor_type;location;lat;lon;timestamp;pressure;altitude;pressure_sealevel;temperature;humidity
9091;BME280;4581;42.416;25.598;2022-12-24T00:01:35;98198.91;;;3.09;99.13
9091;BME280;4581;42.416;25.598;2022-12-24T00:04:02;98206.06;;;3.18;98.78
9091;BME280;4581;42.416;25.598;2022-12-24T00:06:29;98172.66;;;2.95;98.78
9091;BME280;4581;42.416;25.598;2022-12-24T00:08:56;98146.13;;;2.74;98.88
9091;BME280;4581;42.416;25.598;2022-12-24T00:11:23;98179.63;;;2.86;98.86
9091;BME280;4581;42.416;25.598;2022-12-24T00:13:49;98181.63;;;2.94;99.85
9091;BME280;4581;42.416;25.598;2022-12-24T00:16:18;98203.22;;;3.10;99.49
9091;BME280;4581;42.416;25.598;2022-12-24T00:18:44;98139.25;;;2.71;99.77
9091;BME280;4581;42.416;25.598;2022-12-24T00:21:14;98207.31;;;3.04;99.48
9091;BME280;4581;42.416;25.598;2022-12-24T00:23:41;98198.31;;;2.96;100.00
9091;BME280;4581;42.416;25.598;2022-12-24T00:26:08;98185.13;;;2.85;100.00
9091;BME280;4581;42.416;25.598;2022-12-24T00:28:34;98205.72;;;3.02;100.00
9091;BME280;4581;42.416;25.598;2022-12-24T00:31:10;98210.53;;;3.08;99.74
9091;BME280;4581;42.416;25.598;2022-12-24T00:33:38;98208.84;;;3.07;100.00
9091;BME280;4581;42.416;25.598;2022-12-24T00:36:05;98203.50;;;3.07;99.97
9091;BME280;4581;42.416;25.598;2022-12-24T00:38:32;98183.03;;;2.88;99.79
9091;BME280;4581;42.416;25.598;2022-12-24T00:41:00;98202.06;;;2.93;100.00
9091;BME280;4581;42.416;25.598;2022-12-24T00:43:28;98198.66;;;2.81;99.99
9091;BME280;4581;42.416;25.598;2022-12-24T00:45:56;98210.22;;;2.92;100.00
9091;BME280;4581;42.416;25.598;2022-12-24T00:48:23;98207.94;;;2.87;100.00
9091;BME280;4581;42.416;25.598;2022-12-24T00:50:50;98177.38;;;2.72;100.00
9091;BME280;4581;42.416;25.598;2022-12-24T00:53:17;98175.56;;;2.72;100.00
9091;BME280;4581;42.416;25.598;2022-12-24T00:55:43;98199.53;;;2.82;100.00
9091;BME280;4581;42.416;25.598;2022-12-24T00:58:10;98190.84;;;2.80;100.00
9091;BME280;4581;42.416;25.598;2022-12-24T01:00:37;98184.09;;;2.76;100.00
9091;BME280;4581;42.416;25.598;2022-12-24T01:03:03;98188.59;;;2.75;100.00
9091;BME280;4581;42.416;25.598;2022-12-24T01:05:30;98202.75;;;2.86;100.00
9091;BME280;4581;42.416;25.598;2022-12-24T01:07:57;98198.25;;;2.76;100.00
9091;BME280;4581;42.416;25.598;2022-12-24T01:10:27;98183.22;;;2.66;100.00
9091;BME280;4581;42.416;25.598;2022-12-24T01:12:53;98172.28;;;2.59;100.00
9091;BME280;4581;42.416;25.598;2022-12-24T01:15:20;98146.91;;;2.55;100.00
9091;BME280;4581;42.416;25.598;2022-12-24T01:17:47;98156.16;;;2.61;99.92
9091;BME280;4581;42.416;25.598;2022-12-24T01:20:15;98174.31;;;2.76;100.00
9091;BME280;4581;42.416;25.598;2022-12-24T01:22:42;98168.38;;;2.63;100.00
9091;BME280;4581;42.416;25.598;2022-12-24T01:25:09;98170.75;;;2.66;100.00
9091;BME280;4581;42.416;25.598;2022-12-24T01:27:36;98125.19;;;2.50;100.00
9091;BME280;4581;42.416;25.598;2022-12-24T01:30:07;98179.63;;;2.76;99.98
9091;BME280;4581;42.416;25.598;2022-12-24T01:32:34;98119.25;;;2.37;100.00
9091;BME280;4581;42.416;25.598;2022-12-24T01:35:00;98166.72;;;2.72;100.00
9091;BME280;4581;42.416;25.598;2022-12-24T01:37:27;98162.94;;;2.74;100.00
9091;BME280;4581;42.416;25.598;2022-12-24T01:39:54;98173.06;;;2.80;100.00
9091;BME280;4581;42.416;25.598;2022-12-24T01:42:44;98167.28;;;2.75;100.00
9091;BME280;4581;42.416;25.598;2022-12-24T01:45:53;98161.41;;;2.81;100.00
9091;BME280;4581;42.416;25.598;2022-12-24T01:53:57;98167.03;;;2.88;100.00
9091;BME280;4581;42.416;25.598;2022-12-24T01:56:26;98143.19;;;2.67;100.00
9091;BME280;4581;42.416;25.598;2022-12-24T01:58:57;98148.38;;;2.78;100.00
9091;BME280;4581;42.416;25.598;2022-12-24T02:01:26;98158.91;;;2.80;100.00
9091;BME280;4581;42.416;25.598;2022-12-24T02:03:53;98156.38;;;2.78;100.00
9091;BME280;4581;42.416;25.598;2022-12-24T02:06:20;98154.94;;;2.74;100.00
9091;BME280;4581;42.416;25.598;2022-12-24T02:08:48;98131.97;;;2.64;100.00
9091;BME280;4581;42.416;25.598;2022-12-24T02:11:17;98170.66;;;2.77;100.00
9091;BME280;4581;42.416;25.598;2022-12-24T02:13:52;98162.56;;;2.89;100.00
9091;BME280;4581;42.416;25.598;2022-12-24T02:29:31;98174.59;;;2.83;100.00
9091;BME280;4581;42.416;25.598;2022-12-24T02:32:13;98152.69;;;2.70;100.00
9091;BME280;4581;42.416;25.598;2022-12-24T02:34:57;98161.25;;;2.73;100.00
9091;BME280;4581;42.416;25.598;2022-12-24T02:37:34;98157.63;;;2.74;100.00
9091;BME280;4581;42.416;25.598;2022-12-24T02:40:07;98171.47;;;2.68;100.00
9091;BME280;4581;42.416;25.598;2022-12-24T02:42:45;98161.34;;;2.62;100.00
9091;BME280;4581;42.416;25.598;2022-12-24T02:45:17;98137.06;;;2.46;100.00
9091;BME280;4581;42.416;25.598;2022-12-24T02:47:47;98170.31;;;2.61;100.00
9091;BME280;4581;42.416;25.598;2022-12-24T02:50:17;98167.69;;;2.71;100.00
9091;BME280;4581;42.416;25.598;2022-12-24T02:52:45;98167.28;;;2.75;100.00
9091;BME280;4581;42.416;25.598;2022-12-24T03:01:07;98170.06;;;2.64;100.00
9091;BME280;4581;42.416;25.598;2022-12-24T03:03:54;98161.34;;;2.62;100.00
9091;BME280;4581;42.416;25.598;2022-12-24T03:06:33;98130.16;;;2.34;100.00
9091;BME280;4581;42.416;25.598;2022-12-24T03:11:47;98174.50;;;2.54;100.00
9091;BME280;4581;42.416;25.598;2022-12-24T03:14:16;98141.34;;;2.28;100.00
9091;BME280;4581;42.416;25.598;2022-12-24T03:16:44;98155.69;;;2.37;100.00
9091;BME280;4581;42.416;25.598;2022-12-24T03:19:11;98177.88;;;2.56;100.00
9091;BME280;4581;42.416;25.598;2022-12-24T03:21:42;98136.78;;;2.40;100.00
9091;BME280;4581;42.416;25.598;2022-12-24T03:24:10;98105.44;;;2.13;100.00
9091;BME280;4581;42.416;25.598;2022-12-24T03:26:37;98182.53;;;2.64;100.00
9091;BME280;4581;42.416;25.598;2022-12-24T03:29:06;98178.75;;;2.66;100.00
9091;BME280;4581;42.416;25.598;2022-12-24T03:31:48;98165.00;;;2.61;100.00
9091;BME280;4581;42.416;25.598;2022-12-24T03:34:16;98176.34;;;2.63;100.00
9091;BME280;4581;42.416;25.598;2022-12-24T03:36:43;98174.78;;;2.51;100.00
9091;BME280;4581;42.416;25.598;2022-12-24T03:39:10;98159.47;;;2.44;100.00
9091;BME280;4581;42.416;25.598;2022-12-24T03:41:37;98183.19;;;2.56;100.00
9091;BME280;4581;42.416;25.598;2022-12-24T03:44:03;98173.41;;;2.57;100.00
9091;BME280;4581;42.416;25.598;2022-12-24T03:46:30;98163.00;;;2.44;100.00
9091;BME280;4581;42.416;25.598;2022-12-24T03:48:58;98147.94;;;2.33;100.00
9091;BME280;4581;42.416;25.598;2022-12-24T03:51:25;98128.28;;;2.15;100.00
9091;BME280;4581;42.416;25.598;2022-12-24T03:53:53;98153.53;;;2.30;100.00
9091;BME280;4581;42.416;25.598;2022-12-24T03:56:21;98131.50;;;2.19;100.00
9091;BME280;4581;42.416;25.598;2022-12-24T03:58:48;98177.59;;;2.59;100.00
9091;BME280;4581;42.416;25.598;2022-12-24T04:01:15;98152.59;;;2.41;100.00
9091;BME280;4581;42.416;25.598;2022-12-24T04:03:43;98133.63;;;2.25;100.00
9091;BME280;4581;42.416;25.598;2022-12-24T04:06:12;98143.03;;;2.29;100.00
9091;BME280;4581;42.416;25.598;2022-12-24T04:08:40;98167.72;;;2.41;100.00
9091;BME280;4581;42.416;25.598;2022-12-24T04:11:09;98125.66;;;2.25;100.00
9091;BME280;4581;42.416;25.598;2022-12-24T04:13:36;98177.94;;;2.45;100.00
9091;BME280;4581;42.416;25.598;2022-12-24T04:16:09;98169.63;;;2.29;100.00
9091;BME280;4581;42.416;25.598;2022-12-24T04:18:37;98173.69;;;2.33;100.00
9091;BME280;4581;42.416;25.598;2022-12-24T04:21:05;98171.03;;;2.33;100.00
9091;BME280;4581;42.416;25.598;2022-12-24T04:23:34;98187.41;;;2.28;100.00
9091;BME280;4581;42.416;25.598;2022-12-24T04:26:02;98177.59;;;2.29;100.00
9091;BME280;4581;42.416;25.598;2022-12-24T04:28:29;98167.94;;;2.28;100.00
9091;BME280;4581;42.416;25.598;2022-12-24T04:31:04;98163.16;;;2.22;100.00
9091;BME280;4581;42.416;25.598;2022-12-24T04:33:31;98139.81;;;2.05;100.00
9091;BME280;4581;42.416;25.598;2022-12-24T04:35:59;98148.25;;;2.10;100.00
9091;BME280;4581;42.416;25.598;2022-12-24T04:38:27;98177.69;;;2.18;100.00
9091;BME280;4581;42.416;25.598;2022-12-24T04:41:15;98169.97;;;2.15;100.00
9091;BME280;4581;42.416;25.598;2022-12-24T04:43:50;98168.44;;;2.12;100.00
9091;BME280;4581;42.416;25.598;2022-12-24T04:46:19;98151.19;;;2.07;100.00
9091;BME280;4581;42.416;25.598;2022-12-24T04:48:48;98162.50;;;2.09;100.00
9091;BME280;4581;42.416;25.598;2022-12-24T04:51:16;98162.31;;;2.01;100.00
9091;BME280;4581;42.416;25.598;2022-12-24T04:53:43;98181.41;;;2.06;100.00
9091;BME280;4581;42.416;25.598;2022-12-24T04:56:15;98188.84;;;2.12;100.00
9091;BME280;4581;42.416;25.598;2022-12-24T04:58:43;98154.31;;;1.91;100.00
9091;BME280;4581;42.416;25.598;2022-12-24T05:01:16;98177.38;;;2.11;100.00
9091;BME280;4581;42.416;25.598;2022-12-24T05:03:43;98166.28;;;2.06;100.00
9091;BME280;4581;42.416;25.598;2022-12-24T05:06:12;98161.94;;;2.05;100.00
9091;BME280;4581;42.416;25.598;2022-12-24T05:08:39;98167.13;;;2.07;100.00
9091;BME280;4581;42.416;25.598;2022-12-24T05:11:06;98154.59;;;1.88;100.00
9091;BME280;4581;42.416;25.598;2022-12-24T05:13:33;98177.31;;;2.02;100.00
9091;BME280;4581;42.416;25.598;2022-12-24T05:16:11;98195.06;;;2.01;100.00
9091;BME280;4581;42.416;25.598;2022-12-24T05:18:39;98175.00;;;1.87;100.00
9091;BME280;4581;42.416;25.598;2022-12-24T05:21:10;98186.25;;;2.01;100.00
9091;BME280;4581;42.416;25.598;2022-12-24T05:23:39;98135.25;;;1.65;100.00
9091;BME280;4581;42.416;25.598;2022-12-24T05:29:01;98190.47;;;1.82;100.00
9091;BME280;4581;42.416;25.598;2022-12-24T05:31:29;98157.25;;;1.67;100.00
9091;BME280;4581;42.416;25.598;2022-12-24T05:33:57;98196.00;;;1.91;100.00
9091;BME280;4581;42.416;25.598;2022-12-24T05:36:23;98190.56;;;1.92;100.00
9091;BME280;4581;42.416;25.598;2022-12-24T05:38:51;98197.88;;;2.00;100.00
9091;BME280;4581;42.416;25.598;2022-12-24T05:41:18;98189.44;;;1.95;100.00
9091;BME280;4581;42.416;25.598;2022-12-24T05:43:45;98191.13;;;1.96;100.00
9091;BME280;4581;42.416;25.598;2022-12-24T05:46:15;98168.53;;;1.80;100.00
9091;BME280;4581;42.416;25.598;2022-12-24T05:48:43;98156.47;;;1.76;100.00
9091;BME280;4581;42.416;25.598;2022-12-24T05:51:12;98176.69;;;1.68;100.00
9091;BME280;4581;42.416;25.598;2022-12-24T05:53:39;98211.47;;;1.85;100.00
9091;BME280;4581;42.416;25.598;2022-12-24T05:56:11;98211.28;;;1.77;100.00
9091;BME280;4581;42.416;25.598;2022-12-24T05:58:41;98214.59;;;1.91;100.00
9091;BME280;4581;42.416;25.598;2022-12-24T06:01:09;98218.22;;;1.89;100.00
9091;BME280;4581;42.416;25.598;2022-12-24T06:03:37;98210.78;;;1.83;100.00
9091;BME280;4581;42.416;25.598;2022-12-24T06:06:15;98182.97;;;1.67;100.00
9091;BME280;4581;42.416;25.598;2022-12-24T06:08:47;98238.41;;;1.92;100.00
9091;BME280;4581;42.416;25.598;2022-12-24T06:11:16;98234.75;;;1.93;100.00
9091;BME280;4581;42.416;25.598;2022-12-24T06:13:43;98221.81;;;2.00;100.00
9091;BME280;4581;42.416;25.598;2022-12-24T06:16:13;98211.94;;;1.91;100.00
9091;BME280;4581;42.416;25.598;2022-12-24T06:18:40;98234.81;;;2.03;100.00
9091;BME280;4581;42.416;25.598;2022-12-24T06:21:08;98220.38;;;1.96;100.00
9091;BME280;4581;42.416;25.598;2022-12-24T06:23:36;98245.59;;;2.22;100.00
9091;BME280;4581;42.416;25.598;2022-12-24T06:26:04;98224.38;;;2.11;100.00
9091;BME280;4581;42.416;25.598;2022-12-24T06:28:36;98233.59;;;2.27;100.00
9091;BME280;4581;42.416;25.598;2022-12-24T06:31:05;98241.88;;;2.34;100.00
9091;BME280;4581;42.416;25.598;2022-12-24T06:33:33;98251.75;;;2.43;100.00
9091;BME280;4581;42.416;25.598;2022-12-24T06:36:00;98209.38;;;2.30;100.00
9091;BME280;4581;42.416;25.598;2022-12-24T06:38:29;98201.00;;;2.35;100.00
9091;BME280;4581;42.416;25.598;2022-12-24T06:40:56;98242.09;;;2.72;100.00
9091;BME280;4581;42.416;25.598;2022-12-24T06:43:22;98223.00;;;2.67;100.00
9091;BME280;4581;42.416;25.598;2022-12-24T06:45:49;98239.31;;;2.83;100.00
9091;BME280;4581;42.416;25.598;2022-12-24T06:48:16;98218.31;;;2.80;100.00
9091;BME280;4581;42.416;25.598;2022-12-24T06:50:43;98230.38;;;2.94;100.00
9091;BME280;4581;42.416;25.598;2022-12-24T06:53:10;98185.75;;;2.77;100.00
9091;BME280;4581;42.416;25.598;2022-12-24T06:55:36;98226.50;;;3.08;100.00
9091;BME280;4581;42.416;25.598;2022-12-24T06:58:04;98221.50;;;3.24;100.00
9091;BME280;4581;42.416;25.598;2022-12-24T07:00:31;98221.78;;;3.30;100.00
9091;BME280;4581;42.416;25.598;2022-12-24T07:02:58;98207.50;;;3.32;100.00
9091;BME280;4581;42.416;25.598;2022-12-24T07:05:25;98223.63;;;3.49;100.00
9091;BME280;4581;42.416;25.598;2022-12-24T07:07:52;98200.78;;;3.47;100.00
9091;BME280;4581;42.416;25.598;2022-12-24T07:10:19;98204.56;;;3.54;100.00
9091;BME280;4581;42.416;25.598;2022-12-24T07:12:47;98230.66;;;3.69;100.00
9091;BME280;4581;42.416;25.598;2022-12-24T07:15:15;98212.00;;;3.69;100.00
9091;BME280;4581;42.416;25.598;2022-12-24T07:17:42;98218.44;;;3.86;100.00
9091;BME280;4581;42.416;25.598;2022-12-24T07:20:11;98233.03;;;4.01;100.00
9091;BME280;4581;42.416;25.598;2022-12-24T07:22:40;98238.63;;;4.17;100.00
9091;BME280;4581;42.416;25.598;2022-12-24T07:25:07;98204.28;;;4.05;100.00
9091;BME280;4581;42.416;25.598;2022-12-24T07:27:34;98212.03;;;4.45;99.79
9091;BME280;4581;42.416;25.598;2022-12-24T07:30:02;98218.03;;;4.56;97.91
9091;BME280;4581;42.416;25.598;2022-12-24T07:32:29;98207.03;;;4.69;97.60
9091;BME280;4581;42.416;25.598;2022-12-24T07:34:55;98203.66;;;4.67;96.86
9091;BME280;4581;42.416;25.598;2022-12-24T07:37:22;98240.09;;;4.95;96.96
9091;BME280;4581;42.416;25.598;2022-12-24T07:39:49;98214.63;;;5.01;96.37
9091;BME280;4581;42.416;25.598;2022-12-24T07:42:16;98232.69;;;5.34;95.27
9091;BME280;4581;42.416;25.598;2022-12-24T07:44:42;98221.81;;;5.63;93.50
9091;BME280;4581;42.416;25.598;2022-12-24T07:47:09;98215.63;;;5.98;91.69
9091;BME280;4581;42.416;25.598;2022-12-24T07:49:36;98208.38;;;6.08;89.52
9091;BME280;4581;42.416;25.598;2022-12-24T07:52:03;98207.97;;;6.46;88.41
9091;BME280;4581;42.416;25.598;2022-12-24T07:54:30;98216.16;;;6.71;87.98
9091;BME280;4581;42.416;25.598;2022-12-24T07:56:56;98231.69;;;6.93;86.04
9091;BME280;4581;42.416;25.598;2022-12-24T07:59:23;98212.97;;;7.01;85.46
9091;BME280;4581;42.416;25.598;2022-12-24T08:01:50;98242.88;;;7.30;82.85
9091;BME280;4581;42.416;25.598;2022-12-24T08:04:17;98269.75;;;7.38;82.81
9091;BME280;4581;42.416;25.598;2022-12-24T08:06:44;98239.44;;;7.46;83.34
9091;BME280;4581;42.416;25.598;2022-12-24T08:09:10;98239.66;;;7.69;82.54
9091;BME280;4581;42.416;25.598;2022-12-24T08:11:39;98266.25;;;8.28;81.63
9091;BME280;4581;42.416;25.598;2022-12-24T08:14:11;98228.59;;;7.64;82.45
9091;BME280;4581;42.416;25.598;2022-12-24T08:16:38;98265.91;;;8.80;79.66
9091;BME280;4581;42.416;25.598;2022-12-24T08:19:05;98242.59;;;9.19;76.87
9091;BME280;4581;42.416;25.598;2022-12-24T08:21:31;98271.59;;;9.40;76.42
9091;BME280;4581;42.416;25.598;2022-12-24T08:23:58;98233.03;;;8.62;76.80
9091;BME280;4581;42.416;25.598;2022-12-24T08:26:24;98241.72;;;8.64;78.37
9091;BME280;4581;42.416;25.598;2022-12-24T08:28:51;98272.25;;;8.95;78.83
9091;BME280;4581;42.416;25.598;2022-12-24T08:31:18;98268.34;;;9.53;78.17
9091;BME280;4581;42.416;25.598;2022-12-24T08:33:45;98261.53;;;9.96;75.48
9091;BME280;4581;42.416;25.598;2022-12-24T08:36:11;98248.38;;;10.01;72.85
9091;BME280;4581;42.416;25.598;2022-12-24T08:38:38;98262.44;;;9.88;73.11
9091;BME280;4581;42.416;25.598;2022-12-24T08:41:05;98246.44;;;9.25;75.49
9091;BME280;4581;42.416;25.598;2022-12-24T08:43:32;98245.34;;;9.03;78.98
9091;BME280;4581;42.416;25.598;2022-12-24T08:46:03;98261.31;;;9.44;76.66
9091;BME280;4581;42.416;25.598;2022-12-24T08:48:31;98233.56;;;10.05;74.33
9091;BME280;4581;42.416;25.598;2022-12-24T08:50:58;98220.09;;;10.79;70.54
9091;BME280;4581;42.416;25.598;2022-12-24T08:53:25;98237.53;;;10.17;72.07
9091;BME280;4581;42.416;25.598;2022-12-24T08:55:51;98226.66;;;11.80;68.21
9091;BME280;4581;42.416;25.598;2022-12-24T08:58:21;98233.03;;;12.57;63.26
9091;BME280;4581;42.416;25.598;2022-12-24T09:00:48;98267.31;;;12.50;62.14
9091;BME280;4581;42.416;25.598;2022-12-24T09:03:15;98238.06;;;11.96;64.98
9091;BME280;4581;42.416;25.598;2022-12-24T09:05:50;98234.16;;;10.75;68.57
9091;BME280;4581;42.416;25.598;2022-12-24T09:08:19;98241.97;;;11.28;69.53
9091;BME280;4581;42.416;25.598;2022-12-24T09:10:46;98227.75;;;10.91;68.86
9091;BME280;4581;42.416;25.598;2022-12-24T09:13:13;98213.06;;;11.22;65.68
9091;BME280;4581;42.416;25.598;2022-12-24T09:15:39;98241.56;;;11.61;64.99
9091;BME280;4581;42.416;25.598;2022-12-24T09:18:06;98260.75;;;12.38;61.86
9091;BME280;4581;42.416;25.598;2022-12-24T09:20:33;98221.25;;;12.15;64.04
9091;BME280;4581;42.416;25.598;2022-12-24T09:23:00;98239.25;;;13.06;60.05
9091;BME280;4581;42.416;25.598;2022-12-24T09:25:26;98252.06;;;14.14;56.59
9091;BME280;4581;42.416;25.598;2022-12-24T09:27:53;98234.22;;;14.79;52.02
9091;BME280;4581;42.416;25.598;2022-12-24T09:30:20;98249.44;;;14.53;54.52
9091;BME280;4581;42.416;25.598;2022-12-24T09:32:46;98252.38;;;14.59;53.26
9091;BME280;4581;42.416;25.598;2022-12-24T09:35:13;98236.06;;;14.98;52.31
9091;BME280;4581;42.416;25.598;2022-12-24T09:37:40;98249.13;;;15.47;49.70
9091;BME280;4581;42.416;25.598;2022-12-24T09:40:17;98234.06;;;15.58;49.04
9091;BME280;4581;42.416;25.598;2022-12-24T09:42:51;98272.19;;;14.85;52.83
9091;BME280;4581;42.416;25.598;2022-12-24T09:45:28;98274.28;;;14.77;53.37
9091;BME280;4581;42.416;25.598;2022-12-24T09:48:02;98268.25;;;14.68;52.77
9091;BME280;4581;42.416;25.598;2022-12-24T09:50:38;98239.41;;;14.54;52.77
9091;BME280;4581;42.416;25.598;2022-12-24T09:53:17;98248.81;;;14.91;52.74
9091;BME280;4581;42.416;25.598;2022-12-24T09:55:48;98262.59;;;14.83;53.81
9091;BME280;4581;42.416;25.598;2022-12-24T09:58:29;98231.69;;;14.77;52.99
9091;BME280;4581;42.416;25.598;2022-12-24T10:00:59;98208.94;;;14.39;53.80
9091;BME280;4581;42.416;25.598;2022-12-24T10:03:26;98244.63;;;14.69;52.77
9091;BME280;4581;42.416;25.598;2022-12-24T10:08:42;98255.09;;;13.09;59.10
9091;BME280;4581;42.416;25.598;2022-12-24T10:11:18;98248.88;;;12.60;61.53
9091;BME280;4581;42.416;25.598;2022-12-24T10:16:57;98232.56;;;12.26;63.61
9091;BME280;4581;42.416;25.598;2022-12-24T10:22:43;98258.78;;;13.02;60.05
9091;BME280;4581;42.416;25.598;2022-12-24T10:25:35;98251.56;;;12.60;62.33
9091;BME280;4581;42.416;25.598;2022-12-24T10:28:11;98252.63;;;12.38;63.29
9091;BME280;4581;42.416;25.598;2022-12-24T10:30:40;98249.03;;;12.09;64.11
9091;BME280;4581;42.416;25.598;2022-12-24T10:33:19;98244.63;;;11.87;65.42
9091;BME280;4581;42.416;25.598;2022-12-24T10:35:52;98228.16;;;11.67;67.44
9091;BME280;4581;42.416;25.598;2022-12-24T10:38:20;98211.34;;;11.51;66.30
9091;BME280;4581;42.416;25.598;2022-12-24T10:40:52;98223.75;;;11.31;69.05
9091;BME280;4581;42.416;25.598;2022-12-24T10:43:23;98242.16;;;11.42;69.70
9091;BME280;4581;42.416;25.598;2022-12-24T10:45:53;98185.81;;;11.03;68.99
9091;BME280;4581;42.416;25.598;2022-12-24T10:48:43;98230.81;;;11.17;70.33
9091;BME280;4581;42.416;25.598;2022-12-24T10:54:12;98198.94;;;10.91;70.30
9091;BME280;4581;42.416;25.598;2022-12-24T10:56:48;98219.84;;;11.18;68.72
9091;BME280;4581;42.416;25.598;2022-12-24T11:02:38;98235.09;;;11.41;69.53
9091;BME280;4581;42.416;25.598;2022-12-24T11:08:09;98204.13;;;10.93;71.31
9091;BME280;4581;42.416;25.598;2022-12-24T11:10:43;98203.25;;;11.36;69.82
9091;BME280;4581;42.416;25.598;2022-12-24T11:13:42;98214.13;;;11.57;68.93
9091;BME280;4581;42.416;25.598;2022-12-24T11:18:53;98208.88;;;12.28;67.20
9091;BME280;4581;42.416;25.598;2022-12-24T11:21:29;98208.25;;;12.81;65.28
9091;BME280;4581;42.416;25.598;2022-12-24T11:26:41;98214.94;;;13.54;60.08
9091;BME280;4581;42.416;25.598;2022-12-24T11:29:19;98212.31;;;14.47;57.18
9091;BME280;4581;42.416;25.598;2022-12-24T11:31:47;98201.38;;;14.08;58.34
9091;BME280;4581;42.416;25.598;2022-12-24T11:37:09;98213.50;;;13.58;58.95
9091;BME280;4581;42.416;25.598;2022-12-24T11:39:44;98219.66;;;13.04;60.93
9091;BME280;4581;42.416;25.598;2022-12-24T11:42:32;98220.16;;;12.31;62.79
9091;BME280;4581;42.416;25.598;2022-12-24T11:45:04;98187.13;;;11.57;67.09
9091;BME280;4581;42.416;25.598;2022-12-24T11:47:39;98194.91;;;11.31;67.28
9091;BME280;4581;42.416;25.598;2022-12-24T11:53:04;98204.56;;;11.55;67.68
9091;BME280;4581;42.416;25.598;2022-12-24T11:55:43;98208.75;;;11.43;68.06
9091;BME280;4581;42.416;25.598;2022-12-24T12:00:45;98205.78;;;11.38;69.93
9091;BME280;4581;42.416;25.598;2022-12-24T12:03:26;98210.50;;;11.36;69.55
9091;BME280;4581;42.416;25.598;2022-12-24T12:05:58;98204.19;;;11.43;68.45
9091;BME280;4581;42.416;25.598;2022-12-24T12:08:27;98171.53;;;11.23;68.57
9091;BME280;4581;42.416;25.598;2022-12-24T12:10:55;98189.88;;;11.43;69.60
9091;BME280;4581;42.416;25.598;2022-12-24T12:13:29;98198.44;;;11.82;68.07
9091;BME280;4581;42.416;25.598;2022-12-24T12:16:39;98191.25;;;11.89;67.81
9091;BME280;4581;42.416;25.598;2022-12-24T12:19:34;98185.63;;;12.61;66.53
9091;BME280;4581;42.416;25.598;2022-12-24T12:22:06;98181.78;;;13.45;62.76
9091;BME280;4581;42.416;25.598;2022-12-24T12:24:47;98201.28;;;13.82;59.88
9091;BME280;4581;42.416;25.598;2022-12-24T12:27:29;98204.72;;;13.49;59.90
9091;BME280;4581;42.416;25.598;2022-12-24T12:30:02;98187.97;;;12.98;60.25
9091;BME280;4581;42.416;25.598;2022-12-24T12:35:29;98186.78;;;12.24;62.77
9091;BME280;4581;42.416;25.598;2022-12-24T12:38:08;98226.53;;;12.24;64.63
9091;BME280;4581;42.416;25.598;2022-12-24T12:57:21;98182.34;;;11.23;70.93
9091;BME280;4581;42.416;25.598;2022-12-24T12:59:58;98162.75;;;11.15;71.00
9091;BME280;4581;42.416;25.598;2022-12-24T13:05:41;98168.59;;;11.18;71.36
9091;BME280;4581;42.416;25.598;2022-12-24T13:13:47;98154.38;;;10.80;73.80
9091;BME280;4581;42.416;25.598;2022-12-24T13:22:04;98200.13;;;10.89;73.96
9091;BME280;4581;42.416;25.598;2022-12-24T13:24:44;98202.06;;;10.80;75.23
9091;BME280;4581;42.416;25.598;2022-12-24T13:32:37;98200.22;;;10.28;78.45
9091;BME280;4581;42.416;25.598;2022-12-24T13:37:47;98212.72;;;10.44;77.96
9091;BME280;4581;42.416;25.598;2022-12-24T13:40:32;98188.34;;;10.23;78.22
9091;BME280;4581;42.416;25.598;2022-12-24T13:48:02;98202.38;;;10.10;79.81
9091;BME280;4581;42.416;25.598;2022-12-24T13:50:46;98204.38;;;10.16;79.91
9091;BME280;4581;42.416;25.598;2022-12-24T13:58:40;98180.06;;;10.02;79.92
9091;BME280;4581;42.416;25.598;2022-12-24T14:01:10;98181.31;;;10.14;80.04
9091;BME280;4581;42.416;25.598;2022-12-24T14:03:50;98179.44;;;10.14;80.25
9091;BME280;4581;42.416;25.598;2022-12-24T14:06:39;98177.06;;;10.19;80.80
9091;BME280;4581;42.416;25.598;2022-12-24T14:14:28;98189.34;;;10.22;80.96
9091;BME280;4581;42.416;25.598;2022-12-24T14:17:07;98195.56;;;10.22;80.25
9091;BME280;4581;42.416;25.598;2022-12-24T14:19:43;98190.56;;;10.11;80.86
9091;BME280;4581;42.416;25.598;2022-12-24T14:24:41;98202.38;;;10.10;81.77
9091;BME280;4581;42.416;25.598;2022-12-24T14:27:42;98207.81;;;10.02;81.85
9091;BME280;4581;42.416;25.598;2022-12-24T14:30:30;98206.16;;;10.01;82.46
9091;BME280;4581;42.416;25.598;2022-12-24T14:32:57;98206.50;;;9.98;82.54
9091;BME280;4581;42.416;25.598;2022-12-24T14:35:34;98228.38;;;9.95;82.97
9091;BME280;4581;42.416;25.598;2022-12-24T14:38:05;98231.13;;;9.87;83.36
9091;BME280;4581;42.416;25.598;2022-12-24T14:40:36;98234.97;;;9.93;83.59
9091;BME280;4581;42.416;25.598;2022-12-24T14:43:52;98237.88;;;9.83;84.89
9091;BME280;4581;42.416;25.598;2022-12-24T14:46:45;98239.25;;;9.79;85.25
9091;BME280;4581;42.416;25.598;2022-12-24T14:49:36;98236.63;;;9.71;85.30
9091;BME280;4581;42.416;25.598;2022-12-24T14:52:44;98237.34;;;9.65;85.18
9091;BME280;4581;42.416;25.598;2022-12-24T14:55:37;98231.31;;;9.63;85.53
9091;BME280;4581;42.416;25.598;2022-12-24T15:00:48;98214.50;;;9.61;86.59
9091;BME280;4581;42.416;25.598;2022-12-24T15:03:17;98226.94;;;9.62;86.47
9091;BME280;4581;42.416;25.598;2022-12-24T15:05:45;98228.47;;;9.56;86.50
9091;BME280;4581;42.416;25.598;2022-12-24T15:08:28;98221.97;;;9.51;87.51
9091;BME280;4581;42.416;25.598;2022-12-24T15:11:00;98238.44;;;9.48;88.03
9091;BME280;4581;42.416;25.598;2022-12-24T15:13:34;98220.00;;;9.36;88.45
9091;BME280;4581;42.416;25.598;2022-12-24T15:16:06;98229.56;;;9.39;88.49
9091;BME280;4581;42.416;25.598;2022-12-24T15:18:37;98229.03;;;9.44;89.14
9091;BME280;4581;42.416;25.598;2022-12-24T15:21:07;98226.53;;;9.42;89.29
9091;BME280;4581;42.416;25.598;2022-12-24T15:23:45;98226.69;;;9.40;89.54
9091;BME280;4581;42.416;25.598;2022-12-24T15:28:39;98226.94;;;9.23;90.13
9091;BME280;4581;42.416;25.598;2022-12-24T15:31:13;98226.13;;;9.22;90.14
9091;BME280;4581;42.416;25.598;2022-12-24T15:33:43;98235.69;;;9.25;90.14
9091;BME280;4581;42.416;25.598;2022-12-24T15:36:11;98226.47;;;9.11;90.23
9091;BME280;4581;42.416;25.598;2022-12-24T15:38:43;98229.16;;;9.11;90.25
9091;BME280;4581;42.416;25.598;2022-12-24T15:41:18;98223.81;;;9.03;90.29